Time;durP1;ratioP1;P1;durP2;ratioP2;P2;SDS_P1;SDS_P2;PMS_P1;PMS_P2;Temp;Humidity;BMP_temperature;BMP_pressure;BME280_temperature;BME280_humidity;BME280_pressure;Samples;Min_cycle;Max_cycle;Signal;HPM_P1;HPM_P2
2022/11/18 00:01:08;;;;;;;4.43;3.70;;;13.70;80.90;;;-142.21;100.00;112049.66;5074189;28;20461;-73
2022/11/18 00:03:35;;;;;;;7.57;2.97;;;13.70;80.90;;;-142.21;100.00;112049.66;5073765;28;21090;-73
2022/11/18 00:06:02;;;;;;;6.50;3.30;;;13.70;80.90;;;-142.21;100.00;112049.66;5037071;28;20519;-72
2022/11/18 00:08:30;;;;;;;6.03;3.97;;;13.70;81.00;;;-142.21;100.00;112049.66;5073677;28;20983;-73
2022/11/18 00:10:58;;;;;;;4.87;4.00;;;13.70;81.10;;;-142.21;100.00;112049.66;5058265;28;20443;-73
2022/11/18 00:16:12;;;;;;;4.07;3.30;;;13.70;81.10;;;-142.21;100.00;112049.66;5073945;28;20524;-73
2022/11/18 00:18:40;;;;;;;7.60;3.83;;;13.70;81.30;;;-142.21;100.00;112049.66;5055698;28;20815;-73
2022/11/18 00:21:09;;;;;;;5.67;3.47;;;13.80;81.40;;;-142.21;100.00;112049.66;5068954;28;20891;-73
2022/11/18 00:23:39;;;;;;;4.00;3.37;;;13.80;81.50;;;-142.21;100.00;112049.66;5073035;28;20608;-74
2022/11/18 00:26:09;;;;;;;4.60;3.10;;;13.80;81.50;;;-142.21;100.00;112049.66;5073360;28;20487;-74
2022/11/18 00:28:40;;;;;;;4.43;3.07;;;13.70;81.40;;;-142.21;100.00;112049.66;5073959;28;20520;-73
2022/11/18 00:31:11;;;;;;;4.77;3.00;;;13.70;81.50;;;-142.21;100.00;112049.66;5072315;28;20535;-73
2022/11/18 00:33:39;;;;;;;4.20;2.93;;;13.70;81.70;;;-142.21;100.00;112049.66;5073428;28;20803;-73
2022/11/18 00:36:10;;;;;;;4.47;2.87;;;13.70;81.70;;;-142.21;100.00;112049.66;5073305;28;20994;-73
2022/11/18 00:38:37;;;;;;;4.23;3.00;;;13.80;81.80;;;-142.21;100.00;112049.66;5074026;28;20806;-73
2022/11/18 00:41:07;;;;;;;4.57;2.70;;;13.80;81.80;;;-142.21;100.00;112049.66;5072247;28;20511;-74
2022/11/18 00:43:34;;;;;;;2.43;2.07;;;13.80;81.80;;;-142.21;100.00;112049.66;5073058;28;20475;-74
2022/11/18 00:46:05;;;;;;;3.80;2.50;;;13.80;81.50;;;-142.21;100.00;112049.66;5072395;28;20435;-73
2022/11/18 00:48:32;;;;;;;4.40;2.63;;;13.80;82.30;;;-142.21;100.00;112049.66;5071858;28;20528;-74
2022/11/18 00:51:10;;;;;;;2.40;2.20;;;13.80;81.40;;;-142.21;100.00;112049.66;5036624;28;20450;-74
2022/11/18 00:53:37;;;;;;;2.30;2.10;;;13.80;81.40;;;-142.21;100.00;112049.66;5065787;28;20983;-74
2022/11/18 00:56:05;;;;;;;2.63;2.43;;;13.80;81.20;;;-142.21;100.00;112049.66;5056507;28;20546;-74
2022/11/18 00:58:33;;;;;;;2.50;2.30;;;13.80;81.50;;;-142.21;100.00;112049.66;5073189;28;20570;-74
2022/11/18 01:01:02;;;;;;;2.33;2.13;;;13.80;81.40;;;-142.21;100.00;112049.66;5071784;28;20543;-73
2022/11/18 01:03:31;;;;;;;4.70;2.33;;;13.80;81.50;;;-142.21;100.00;112049.66;5065216;28;20943;-74
2022/11/18 01:06:02;;;;;;;2.67;2.47;;;13.80;81.60;;;-142.21;100.00;112049.66;5072222;28;20443;-74
2022/11/18 01:08:29;;;;;;;3.67;2.53;;;13.80;81.50;;;-142.21;100.00;112049.66;5065053;28;20435;-74
2022/11/18 01:13:17;;;;;;;3.70;2.20;;;13.80;81.60;;;-142.21;100.00;112049.66;5071868;28;20483;-74
2022/11/18 01:13:43;;;;;;;3.63;2.30;;;13.80;81.60;;;-142.21;100.00;112049.66;5072533;28;20455;-74
2022/11/18 01:16:18;;;;;;;3.27;2.93;;;13.80;81.60;;;-142.21;100.00;112049.66;5072268;28;20493;-74
2022/11/18 01:18:45;;;;;;;10.67;4.13;;;13.80;81.90;;;-142.21;100.00;112049.66;5070227;28;20545;-74
2022/11/18 01:21:12;;;;;;;6.73;4.50;;;13.60;82.30;;;-142.21;100.00;112049.66;5071023;28;20551;-73
2022/11/18 01:23:40;;;;;;;8.10;4.83;;;13.50;82.70;;;-142.21;100.00;112049.66;5073152;28;20834;-73
2022/11/18 01:26:10;;;;;;;5.60;3.43;;;13.50;83.00;;;-142.21;100.00;112049.66;5072246;28;20443;-73
2022/11/18 01:28:38;;;;;;;4.83;3.23;;;13.50;83.30;;;-142.21;100.00;112049.66;5064775;28;20471;-73
2022/11/18 01:31:10;;;;;;;4.80;2.60;;;13.50;83.60;;;-142.21;100.00;112049.66;5069291;28;20841;-73
2022/11/18 01:33:39;;;;;;;4.77;2.20;;;13.60;83.90;;;-142.21;100.00;112049.66;5072301;28;20543;-73
2022/11/18 01:36:16;;;;;;;5.13;2.70;;;13.60;84.00;;;-142.21;100.00;112049.66;5072158;28;20856;-73
2022/11/18 01:38:44;;;;;;;3.67;1.87;;;13.60;84.20;;;-142.21;100.00;112049.66;5072066;28;20521;-73
2022/11/18 01:41:11;;;;;;;6.03;2.03;;;13.60;83.90;;;-142.21;100.00;112049.66;5070305;28;20448;-72
2022/11/18 01:43:56;;;;;;;4.43;2.33;;;13.70;84.00;;;-142.21;100.00;112049.66;5073175;28;20482;-73
2022/11/18 01:46:27;;;;;;;4.13;2.23;;;13.70;84.20;;;-142.21;100.00;112049.66;5069464;28;21105;-74
2022/11/18 01:49:02;;;;;;;5.67;2.33;;;13.80;84.00;;;-142.21;100.00;112049.66;5070667;28;20471;-73
2022/11/18 01:51:36;;;;;;;4.67;2.40;;;13.80;84.00;;;-142.21;100.00;112049.66;5068092;28;20477;-73
2022/11/18 01:54:12;;;;;;;5.23;2.40;;;13.80;84.00;;;-142.21;100.00;112049.66;5071753;28;20435;-73
2022/11/18 01:56:47;;;;;;;3.50;2.30;;;13.80;84.00;;;-142.21;100.00;112049.66;5071633;28;20439;-73
2022/11/18 01:59:19;;;;;;;4.27;2.30;;;13.80;84.10;;;-142.21;100.00;112049.66;5070418;28;20473;-73
2022/11/18 02:01:47;;;;;;;2.90;2.20;;;13.70;83.90;;;-142.21;100.00;112049.66;5070663;28;20985;-73
2022/11/18 02:04:17;;;;;;;3.50;2.43;;;13.70;84.20;;;-142.21;100.00;112049.66;5071791;28;20439;-73
2022/11/18 02:06:47;;;;;;;3.90;1.90;;;13.70;84.10;;;-142.21;100.00;112049.66;5072135;28;20475;-73
2022/11/18 02:09:16;;;;;;;2.80;1.90;;;13.70;84.20;;;-142.21;100.00;112049.66;5070274;28;20443;-73
2022/11/18 02:11:53;;;;;;;2.17;1.73;;;13.60;85.40;;;-142.21;100.00;112049.66;5071488;28;20534;-74
2022/11/18 02:14:26;;;;;;;3.10;2.10;;;13.60;84.70;;;-142.21;100.00;112049.66;5072430;28;21126;-73
2022/11/18 02:17:08;;;;;;;3.50;2.20;;;13.60;85.10;;;-142.21;100.00;112049.66;5070405;28;20442;-73
2022/11/18 02:20:24;;;;;;;4.57;2.17;;;13.60;85.20;;;-142.21;100.00;112049.66;5070739;28;20466;-73
2022/11/18 02:23:40;;;;;;;2.00;1.83;;;13.60;85.30;;;-142.21;100.00;112049.66;5071273;28;20557;-73
2022/11/18 02:27:01;;;;;;;6.47;4.63;;;13.50;85.50;;;-142.21;100.00;112049.66;5071498;28;20440;-73
2022/11/18 02:29:43;;;;;;;3.97;2.47;;;13.50;86.10;;;-142.21;100.00;112049.66;5070679;28;20522;-73
2022/11/18 02:32:18;;;;;;;3.60;2.50;;;13.50;86.80;;;-142.21;100.00;112049.66;5071104;28;20534;-73
2022/11/18 02:34:55;;;;;;;3.93;2.07;;;13.50;85.90;;;-142.21;100.00;112049.66;5071115;28;20492;-73
2022/11/18 02:37:34;;;;;;;3.93;2.10;;;13.50;85.90;;;-142.21;100.00;112049.66;5070953;28;20443;-73
2022/11/18 02:40:07;;;;;;;3.83;1.73;;;13.50;85.90;;;-142.21;100.00;112049.66;5066531;28;20438;-73
2022/11/18 02:42:39;;;;;;;2.87;1.60;;;13.50;86.10;;;-142.21;100.00;112049.66;5071553;28;20439;-73
2022/11/18 02:45:16;;;;;;;3.00;1.43;;;13.50;86.10;;;-142.21;100.00;112049.66;5052835;28;20448;-73
2022/11/18 02:47:48;;;;;;;2.83;1.40;;;13.40;86.30;;;-142.21;100.00;112049.66;5057676;28;20527;-72
2022/11/18 02:50:20;;;;;;;2.23;1.50;;;13.40;86.60;;;-142.21;100.00;112049.66;5070792;28;20489;-72
2022/11/18 02:52:54;;;;;;;1.40;1.30;;;13.40;87.00;;;-142.21;100.00;112049.66;5071637;28;20475;-73
2022/11/18 02:55:25;;;;;;;1.70;1.23;;;13.40;86.90;;;-142.21;100.00;112049.66;5071415;28;20915;-73
2022/11/18 02:57:54;;;;;;;3.30;1.60;;;13.30;87.80;;;-142.21;100.00;112049.66;5070664;28;20911;-72
2022/11/18 03:00:22;;;;;;;4.30;1.47;;;13.30;87.50;;;-142.21;100.00;112049.66;5070682;28;20447;-74
2022/11/18 03:02:50;;;;;;;1.80;1.10;;;13.20;87.80;;;-142.21;100.00;112049.66;5071106;28;20540;-75
2022/11/18 03:05:27;;;;;;;1.17;1.17;;;13.10;87.10;;;-142.21;100.00;112049.66;5071570;28;20959;-76
2022/11/18 03:08:05;;;;;;;2.30;1.17;;;13.10;87.70;;;-142.21;100.00;112049.66;5071389;28;20526;-75
2022/11/18 03:10:43;;;;;;;3.80;1.30;;;13.00;87.70;;;-142.21;100.00;112049.66;5071218;28;20461;-75
2022/11/18 03:13:21;;;;;;;1.67;1.00;;;13.10;87.90;;;-142.21;100.00;112049.66;5074254;28;20522;-76
2022/11/18 03:16:01;;;;;;;1.30;0.97;;;13.00;88.40;;;-142.21;100.00;112049.66;5075633;28;20431;-75
2022/11/18 03:18:40;;;;;;;1.57;1.10;;;13.00;87.90;;;-142.21;100.00;112049.66;5065875;28;20463;-76
2022/11/18 03:21:16;;;;;;;2.80;1.20;;;13.00;87.70;;;-142.21;100.00;112049.66;5019932;28;20549;-75
2022/11/18 03:23:52;;;;;;;2.20;1.40;;;13.10;88.20;;;-142.21;100.00;112049.66;5055485;28;20566;-76
2022/11/18 03:26:29;;;;;;;1.93;1.10;;;13.00;88.10;;;-142.21;100.00;112049.66;5059263;28;20856;-75
2022/11/18 03:29:04;;;;;;;2.77;1.30;;;13.00;88.00;;;-142.21;100.00;112049.66;5067868;28;20436;-74
2022/11/18 03:31:42;;;;;;;1.13;0.93;;;13.00;88.10;;;-142.21;100.00;112049.66;5037747;28;20443;-75
2022/11/18 03:34:16;;;;;;;2.57;1.20;;;13.00;88.20;;;-142.21;100.00;112049.66;5055162;28;20424;-76
2022/11/18 03:36:50;;;;;;;1.67;1.30;;;13.00;87.90;;;-142.21;100.00;112049.66;5063646;28;20875;-73
2022/11/18 03:39:22;;;;;;;1.50;1.17;;;12.90;87.90;;;-142.21;100.00;112049.66;5072909;28;20979;-76
2022/11/18 03:41:56;;;;;;;4.00;1.90;;;12.90;88.00;;;-142.21;100.00;112049.66;5040081;28;20479;-76
2022/11/18 03:44:31;;;;;;;2.73;1.30;;;12.90;88.00;;;-142.21;100.00;112049.66;5074805;28;20436;-75
2022/11/18 03:47:06;;;;;;;2.40;0.83;;;12.80;88.20;;;-142.21;100.00;112049.66;5071177;28;20442;-75
2022/11/18 03:49:42;;;;;;;1.77;1.10;;;12.80;87.90;;;-142.21;100.00;112049.66;5019144;28;20450;-75
2022/11/18 03:52:17;;;;;;;3.40;1.00;;;12.80;87.90;;;-142.21;100.00;112049.66;5065969;28;20441;-75
2022/11/18 03:54:50;;;;;;;1.03;0.90;;;12.80;88.80;;;-142.21;100.00;112049.66;5074981;28;20435;-75
2022/11/18 03:57:24;;;;;;;1.10;0.80;;;12.80;88.00;;;-142.21;100.00;112049.66;5073767;28;20462;-75
2022/11/18 03:59:59;;;;;;;3.17;1.20;;;12.80;87.90;;;-142.21;100.00;112049.66;5055221;28;20474;-74
2022/11/18 04:02:30;;;;;;;0.90;0.73;;;12.80;88.10;;;-142.21;100.00;112049.66;5074888;28;20455;-74
2022/11/18 04:05:02;;;;;;;1.43;1.00;;;12.80;87.90;;;-142.21;100.00;112049.66;5074411;28;20536;-73
2022/11/18 04:07:37;;;;;;;2.57;1.23;;;12.80;87.70;;;-142.21;100.00;112049.66;5072328;28;20880;-75
2022/11/18 04:10:13;;;;;;;1.37;0.83;;;12.90;87.60;;;-142.21;100.00;112049.66;5073367;28;20465;-75
2022/11/18 04:12:47;;;;;;;2.30;1.03;;;12.90;87.50;;;-142.21;100.00;112049.66;5074205;28;20903;-74
2022/11/18 04:15:15;;;;;;;2.23;1.20;;;12.90;87.50;;;-142.21;100.00;112049.66;5065292;28;20432;-75
2022/11/18 04:17:44;;;;;;;1.63;0.97;;;12.90;87.50;;;-142.21;100.00;112049.66;5071728;28;20443;-75
2022/11/18 04:20:17;;;;;;;2.80;1.13;;;12.90;87.30;;;-142.21;100.00;112049.66;5057594;28;20459;-74
2022/11/18 04:22:44;;;;;;;1.40;1.03;;;12.90;87.30;;;-142.21;100.00;112049.66;5072130;28;20475;-74
2022/11/18 04:25:12;;;;;;;1.37;1.20;;;12.90;87.40;;;-142.21;100.00;112049.66;5071716;28;20946;-74
2022/11/18 04:27:39;;;;;;;1.10;1.00;;;12.90;87.70;;;-142.21;100.00;112049.66;5070866;28;20939;-75
2022/11/18 04:30:08;;;;;;;1.37;0.90;;;12.90;87.50;;;-142.21;100.00;112049.66;5037397;28;20443;-76
2022/11/18 04:32:35;;;;;;;1.53;1.30;;;12.90;87.50;;;-142.21;100.00;112049.66;5074080;28;20451;-76
2022/11/18 04:35:04;;;;;;;1.57;1.10;;;12.90;87.70;;;-142.21;100.00;112049.66;5054573;28;20436;-75
2022/11/18 04:37:32;;;;;;;1.50;0.90;;;12.90;87.60;;;-142.21;100.00;112049.66;5069584;28;20522;-75
2022/11/18 04:39:59;;;;;;;2.23;1.10;;;12.90;87.20;;;-142.21;100.00;112049.66;5073142;28;20501;-73
2022/11/18 04:42:27;;;;;;;1.00;0.97;;;12.90;87.00;;;-142.21;100.00;112049.66;5073976;28;20919;-75
2022/11/18 04:44:54;;;;;;;1.40;0.87;;;12.90;86.70;;;-142.21;100.00;112049.66;5074341;28;20442;-75
2022/11/18 04:47:22;;;;;;;2.10;0.93;;;12.90;87.20;;;-142.21;100.00;112049.66;5066561;28;20475;-74
2022/11/18 04:49:49;;;;;;;1.80;0.97;;;12.90;87.20;;;-142.21;100.00;112049.66;5065970;28;20443;-74
2022/11/18 04:52:17;;;;;;;2.57;1.10;;;12.90;87.00;;;-142.21;100.00;112049.66;5073530;28;20510;-75
2022/11/18 04:54:45;;;;;;;1.33;0.77;;;12.90;86.60;;;-142.21;100.00;112049.66;5073460;28;20443;-74
2022/11/18 04:57:12;;;;;;;1.60;1.00;;;12.90;86.60;;;-142.21;100.00;112049.66;5063937;28;20530;-74
2022/11/18 04:59:40;;;;;;;3.10;1.23;;;12.90;86.50;;;-142.21;100.00;112049.66;5068129;28;20577;-75
2022/11/18 05:02:08;;;;;;;1.90;1.07;;;12.80;86.30;;;-142.21;100.00;112049.66;5072672;28;20449;-75
2022/11/18 05:04:35;;;;;;;1.60;0.87;;;12.90;86.90;;;-142.21;100.00;112049.66;5073530;28;20475;-75
2022/11/18 05:07:06;;;;;;;2.27;0.97;;;12.90;86.60;;;-142.21;100.00;112049.66;5071606;28;21020;-74
2022/11/18 05:09:35;;;;;;;1.67;1.00;;;12.90;86.70;;;-142.21;100.00;112049.66;5066318;28;20439;-75
2022/11/18 05:14:47;;;;;;;1.63;0.97;;;12.80;86.60;;;-142.21;100.00;112049.66;5073614;28;20994;-74
2022/11/18 05:17:14;;;;;;;1.13;0.90;;;12.70;86.40;;;-142.21;100.00;112049.66;5071535;28;20801;-74
2022/11/18 05:19:42;;;;;;;2.13;1.10;;;12.50;86.50;;;-142.21;100.00;112049.66;5062756;28;20820;-74
2022/11/18 05:22:09;;;;;;;1.13;0.90;;;12.30;87.30;;;-142.21;100.00;112049.66;5072334;28;20501;-74
2022/11/18 05:24:37;;;;;;;4.53;2.90;;;12.30;87.50;;;-142.21;100.00;112049.66;5072724;28;21051;-74
2022/11/18 05:27:04;;;;;;;1.57;1.40;;;12.20;87.80;;;-142.21;100.00;112049.66;5068102;28;20450;-74
2022/11/18 05:29:32;;;;;;;1.47;1.27;;;12.30;87.60;;;-142.21;100.00;112049.66;5072359;28;20961;-75
2022/11/18 05:31:59;;;;;;;2.13;1.40;;;12.30;87.40;;;-142.21;100.00;112049.66;5072568;28;20460;-75
2022/11/18 05:34:26;;;;;;;1.83;1.00;;;12.30;87.30;;;-142.21;100.00;112049.66;5073202;28;20443;-76
2022/11/18 05:36:53;;;;;;;1.40;1.10;;;12.30;87.50;;;-142.21;100.00;112049.66;5068653;28;20440;-74
2022/11/18 05:39:20;;;;;;;1.47;1.20;;;12.40;87.50;;;-142.21;100.00;112049.66;5071741;28;20497;-76
2022/11/18 05:44:34;;;;;;;3.50;2.07;;;12.40;87.10;;;-142.21;100.00;112049.66;5072276;28;20422;-72
2022/11/18 05:47:01;;;;;;;3.40;1.70;;;12.20;86.70;;;-142.21;100.00;112049.66;5071410;28;20534;-75
2022/11/18 05:49:28;;;;;;;1.60;1.10;;;12.30;87.30;;;-142.21;100.00;112049.66;5072025;28;20535;-74
2022/11/18 05:51:56;;;;;;;2.17;0.90;;;12.30;87.00;;;-142.21;100.00;112049.66;5063363;28;20463;-75
2022/11/18 05:54:23;;;;;;;2.10;0.93;;;12.20;86.50;;;-142.21;100.00;112049.66;5070688;28;20936;-74
2022/11/18 05:56:52;;;;;;;1.13;0.77;;;12.10;86.50;;;-142.21;100.00;112049.66;5060367;28;20476;-76
2022/11/18 05:59:19;;;;;;;2.47;1.10;;;12.10;87.10;;;-142.21;100.00;112049.66;5067940;28;20522;-74
2022/11/18 06:01:54;;;;;;;0.80;0.80;;;12.00;87.10;;;-142.21;100.00;112049.66;5071581;28;20451;-75
2022/11/18 06:04:30;;;;;;;2.00;1.23;;;12.10;87.20;;;-142.21;100.00;112049.66;5072227;28;21134;-75
2022/11/18 06:07:04;;;;;;;1.50;1.40;;;12.00;87.10;;;-142.21;100.00;112049.66;5072389;28;21194;-75
2022/11/18 06:09:37;;;;;;;1.40;1.17;;;12.00;87.00;;;-142.21;100.00;112049.66;5071842;28;20450;-75
2022/11/18 06:12:08;;;;;;;1.53;1.40;;;12.00;87.10;;;-142.21;100.00;112049.66;5069113;28;20450;-76
2022/11/18 06:14:42;;;;;;;1.90;0.90;;;12.10;86.80;;;-142.21;100.00;112049.66;5072077;28;20461;-75
2022/11/18 06:17:22;;;;;;;0.93;0.83;;;12.10;86.70;;;-142.21;100.00;112049.66;5071477;28;20968;-75
2022/11/18 06:19:50;;;;;;;0.80;0.80;;;12.10;86.60;;;-142.21;100.00;112049.66;5071315;28;20471;-74
2022/11/18 06:22:17;;;;;;;1.10;0.53;;;12.10;87.30;;;-142.21;100.00;112049.66;5070933;28;20566;-75
2022/11/18 06:24:45;;;;;;;1.20;0.80;;;12.10;86.20;;;-142.21;100.00;112049.66;5069729;28;20479;-74
2022/11/18 06:27:15;;;;;;;0.87;0.77;;;12.10;86.30;;;-142.21;100.00;112049.66;5071135;28;20521;-75
2022/11/18 06:29:43;;;;;;;2.00;1.00;;;12.10;86.00;;;-142.21;100.00;112049.66;5072243;28;20519;-74
2022/11/18 06:32:11;;;;;;;0.97;0.90;;;12.00;86.30;;;-142.21;100.00;112049.66;5071315;28;20489;-74
2022/11/18 06:34:38;;;;;;;1.40;1.07;;;12.00;87.30;;;-142.21;100.00;112049.66;5071871;28;20445;-74
2022/11/18 06:37:14;;;;;;;1.20;0.83;;;12.10;86.60;;;-142.21;100.00;112049.66;5071068;28;20534;-72
2022/11/18 06:39:41;;;;;;;1.10;0.70;;;12.10;86.60;;;-142.21;100.00;112049.66;5071186;28;20467;-72
2022/11/18 06:42:08;;;;;;;1.53;1.20;;;12.00;86.40;;;-142.21;100.00;112049.66;5071557;28;20538;-72
2022/11/18 06:44:36;;;;;;;2.63;0.70;;;11.90;86.60;;;-142.21;100.00;112049.66;5071621;28;20526;-73
2022/11/18 06:47:04;;;;;;;1.87;0.90;;;12.00;87.00;;;-142.21;100.00;112049.66;5071620;28;20526;-71
2022/11/18 06:49:31;;;;;;;0.70;0.70;;;12.00;86.60;;;-142.21;100.00;112049.66;5072048;28;20530;-73
2022/11/18 06:51:59;;;;;;;0.83;0.83;;;12.10;86.40;;;-142.21;100.00;112049.66;5071798;28;20455;-74
2022/11/18 06:54:26;;;;;;;1.60;1.00;;;12.00;86.10;;;-142.21;100.00;112049.66;5070450;28;20530;-74
2022/11/18 06:56:53;;;;;;;0.70;0.70;;;12.00;86.40;;;-142.21;100.00;112049.66;5071019;28;20474;-74
2022/11/18 06:59:23;;;;;;;1.23;0.87;;;12.00;86.50;;;-142.21;100.00;112049.66;5070696;28;20489;-74
2022/11/18 07:01:53;;;;;;;0.90;0.90;;;12.00;86.40;;;-142.21;100.00;112049.66;5071477;28;20477;-73
2022/11/18 07:04:20;;;;;;;1.33;0.90;;;12.00;86.50;;;-142.21;100.00;112049.66;5071500;28;20451;-73
2022/11/18 07:06:47;;;;;;;1.17;1.07;;;12.00;86.10;;;-142.21;100.00;112049.66;5071533;28;20530;-73
2022/11/18 07:09:15;;;;;;;1.10;1.10;;;12.00;86.20;;;-142.21;100.00;112049.66;5070751;28;20975;-73
2022/11/18 07:11:43;;;;;;;1.83;1.47;;;11.90;86.60;;;-142.21;100.00;112049.66;5071692;28;20447;-73
2022/11/18 07:14:10;;;;;;;0.90;0.90;;;11.90;86.60;;;-142.21;100.00;112049.66;5070643;28;20447;-73
2022/11/18 07:16:38;;;;;;;0.90;0.80;;;11.80;87.20;;;-142.21;100.00;112049.66;5071398;28;20474;-73
2022/11/18 07:19:12;;;;;;;1.63;1.10;;;11.90;87.70;;;-142.21;100.00;112049.66;5070819;28;20513;-73
2022/11/18 07:21:40;;;;;;;1.13;0.90;;;11.90;87.20;;;-142.21;100.00;112049.66;5070765;28;20554;-73
2022/11/18 07:24:09;;;;;;;2.23;0.90;;;12.00;87.20;;;-142.21;100.00;112049.66;5069877;28;20435;-73
2022/11/18 07:26:37;;;;;;;1.37;1.20;;;12.10;87.10;;;-142.21;100.00;112049.66;5071789;28;20517;-73
2022/11/18 07:29:04;;;;;;;0.97;0.80;;;12.20;86.70;;;-142.21;100.00;112049.66;5071432;28;20451;-73
2022/11/18 07:31:33;;;;;;;1.40;1.23;;;12.20;86.40;;;-142.21;100.00;112049.66;5071404;28;20436;-71
2022/11/18 07:34:00;;;;;;;0.80;0.80;;;12.20;86.70;;;-142.21;100.00;112049.66;5070895;28;20486;-73
2022/11/18 07:36:30;;;;;;;1.13;1.07;;;12.10;87.00;;;-142.21;100.00;112049.66;5052094;28;20512;-73
2022/11/18 07:39:00;;;;;;;1.40;1.20;;;12.10;87.00;;;-142.21;100.00;112049.66;5070747;28;20462;-73
2022/11/18 07:41:30;;;;;;;1.37;1.13;;;12.10;87.20;;;-142.21;100.00;112049.66;5070952;28;20438;-73
2022/11/18 07:43:59;;;;;;;1.33;0.83;;;12.10;87.40;;;-142.21;100.00;112049.66;5071147;28;20504;-74
2022/11/18 07:46:29;;;;;;;1.50;1.40;;;12.10;87.30;;;-142.21;100.00;112049.66;5070864;28;20969;-74
2022/11/18 07:48:59;;;;;;;1.40;1.30;;;12.10;87.70;;;-142.21;100.00;112049.66;5071638;28;20486;-73
2022/11/18 07:51:31;;;;;;;2.20;1.70;;;12.00;87.80;;;-142.21;100.00;112049.66;5070560;28;20471;-73
2022/11/18 07:54:05;;;;;;;1.53;1.10;;;12.00;88.10;;;-142.21;100.00;112049.66;5071079;28;20467;-73
2022/11/18 07:56:32;;;;;;;1.97;1.40;;;12.00;88.30;;;-142.21;100.00;112049.66;5071259;28;20486;-73
2022/11/18 07:58:59;;;;;;;0.97;0.97;;;12.10;88.10;;;-142.21;100.00;112049.66;5072166;28;20447;-73
2022/11/18 08:01:27;;;;;;;2.73;1.00;;;12.20;88.30;;;-142.21;100.00;112049.66;5074220;28;20473;-73
2022/11/18 08:03:56;;;;;;;1.53;1.20;;;12.20;88.00;;;-142.21;100.00;112049.66;5075215;28;20605;-73
2022/11/18 08:06:24;;;;;;;1.43;1.03;;;12.20;88.10;;;-142.21;100.00;112049.66;5073929;28;20526;-74
2022/11/18 08:08:53;;;;;;;1.30;1.10;;;12.20;88.00;;;-142.21;100.00;112049.66;5074216;28;20505;-73
2022/11/18 08:11:20;;;;;;;2.80;1.53;;;12.20;88.00;;;-142.21;100.00;112049.66;5073268;28;20486;-73
2022/11/18 08:13:48;;;;;;;1.73;1.40;;;12.30;88.20;;;-142.21;100.00;112049.66;5074763;28;20501;-73
2022/11/18 08:16:19;;;;;;;2.07;1.30;;;12.30;88.10;;;-142.21;100.00;112049.66;5074337;28;20543;-73
2022/11/18 08:18:47;;;;;;;1.93;1.73;;;12.30;88.10;;;-142.21;100.00;112049.66;5074749;28;21047;-73
2022/11/18 08:21:16;;;;;;;1.87;1.37;;;12.30;88.20;;;-142.21;100.00;112049.66;5073952;28;20915;-73
2022/11/18 08:23:44;;;;;;;2.50;1.50;;;12.20;88.30;;;-142.21;100.00;112049.66;5074415;28;20567;-73
2022/11/18 08:26:14;;;;;;;1.90;1.70;;;12.30;88.20;;;-142.21;100.00;112049.66;5073354;28;20530;-73
2022/11/18 08:28:42;;;;;;;1.83;1.30;;;12.30;88.20;;;-142.21;100.00;112049.66;5039044;28;20443;-73
2022/11/18 08:31:11;;;;;;;1.73;1.60;;;12.20;88.00;;;-142.21;100.00;112049.66;5073550;28;20442;-73
2022/11/18 08:33:39;;;;;;;1.30;1.20;;;12.20;88.70;;;-142.21;100.00;112049.66;5074619;28;20512;-73
2022/11/18 08:36:09;;;;;;;2.00;1.40;;;12.10;89.10;;;-142.21;100.00;112049.66;5074303;28;20858;-73
2022/11/18 08:38:36;;;;;;;2.67;1.47;;;12.20;89.10;;;-142.21;100.00;112049.66;5074374;28;20478;-73
2022/11/18 08:41:06;;;;;;;1.77;1.60;;;12.20;88.90;;;-142.21;100.00;112049.66;5073646;28;20564;-73
2022/11/18 08:43:36;;;;;;;1.60;1.50;;;12.20;89.20;;;-142.21;100.00;112049.66;5073911;28;20487;-72
2022/11/18 08:46:03;;;;;;;2.53;1.60;;;12.20;89.10;;;-142.21;100.00;112049.66;5074374;28;20514;-73
2022/11/18 08:48:31;;;;;;;3.03;1.70;;;12.20;89.20;;;-142.21;100.00;112049.66;5073229;28;20853;-73
2022/11/18 08:51:00;;;;;;;1.60;1.50;;;12.20;89.40;;;-142.21;100.00;112049.66;5073470;28;20993;-73
2022/11/18 08:53:27;;;;;;;1.80;1.57;;;12.20;89.70;;;-142.21;100.00;112049.66;5073255;28;20931;-73
2022/11/18 08:55:57;;;;;;;2.13;1.40;;;12.30;89.70;;;-142.21;100.00;112049.66;5073610;28;20947;-73
2022/11/18 08:58:24;;;;;;;1.70;1.60;;;12.40;89.70;;;-142.21;100.00;112049.66;5073405;28;20432;-74
2022/11/18 09:00:53;;;;;;;1.63;1.53;;;12.40;89.30;;;-142.21;100.00;112049.66;5073645;28;20483;-73
2022/11/18 09:03:21;;;;;;;3.00;1.60;;;12.40;89.30;;;-142.21;100.00;112049.66;5072823;28;20452;-73
2022/11/18 09:05:49;;;;;;;2.13;1.70;;;12.40;89.00;;;-142.21;100.00;112049.66;5073573;28;20555;-73
2022/11/18 09:08:16;;;;;;;1.83;1.73;;;12.30;89.80;;;-142.21;100.00;112049.66;5073000;28;20513;-73
2022/11/18 09:10:44;;;;;;;2.40;2.20;;;12.20;89.90;;;-142.21;100.00;112049.66;5072773;28;20944;-73
2022/11/18 09:13:11;;;;;;;2.57;1.90;;;12.30;90.20;;;-142.21;100.00;112049.66;5073211;28;20448;-73
2022/11/18 09:15:38;;;;;;;1.90;1.80;;;12.40;90.10;;;-142.21;100.00;112049.66;5073336;28;21219;-74
2022/11/18 09:18:06;;;;;;;3.30;2.00;;;12.40;89.80;;;-142.21;100.00;112049.66;5073143;28;20450;-73
2022/11/18 09:20:34;;;;;;;2.70;2.10;;;12.40;89.70;;;-142.21;100.00;112049.66;5072881;28;20585;-73
2022/11/18 09:23:01;;;;;;;2.27;1.90;;;12.40;89.80;;;-142.21;100.00;112049.66;5073263;28;20570;-73
2022/11/18 09:25:28;;;;;;;3.83;2.17;;;12.50;89.90;;;-142.21;100.00;112049.66;5037205;28;20477;-73
2022/11/18 09:27:58;;;;;;;2.60;2.23;;;12.60;89.50;;;-142.21;100.00;112049.66;5073259;28;20546;-73
2022/11/18 09:30:25;;;;;;;3.50;2.53;;;12.60;90.10;;;-142.21;100.00;112049.66;5072988;28;20447;-73
2022/11/18 09:32:58;;;;;;;2.30;2.00;;;12.50;89.50;;;-142.21;100.00;112049.66;5072396;28;20451;-74
2022/11/18 09:35:52;;;;;;;2.67;2.37;;;12.50;90.00;;;-142.21;100.00;112049.66;5072669;28;20448;-73
2022/11/18 09:38:20;;;;;;;2.80;2.37;;;12.50;90.00;;;-142.21;100.00;112049.66;5072601;28;20467;-73
2022/11/18 09:41:05;;;;;;;2.60;2.40;;;12.50;90.00;;;-142.21;100.00;112049.66;5073181;28;20488;-73
2022/11/18 09:43:52;;;;;;;3.27;2.50;;;12.50;90.00;;;-142.21;100.00;112049.66;5072616;28;20510;-73
2022/11/18 09:46:31;;;;;;;3.37;2.40;;;12.50;90.00;;;-142.21;100.00;112049.66;5072364;28;20439;-73
2022/11/18 09:49:14;;;;;;;2.40;2.17;;;12.60;90.00;;;-142.21;100.00;112049.66;5072176;28;21011;-73
2022/11/18 09:51:46;;;;;;;2.50;2.20;;;12.50;90.00;;;-142.21;100.00;112049.66;5072999;28;20496;-73
2022/11/18 09:54:21;;;;;;;4.03;2.60;;;12.60;90.00;;;-142.21;100.00;112049.66;5071801;28;20428;-72
2022/11/18 09:56:48;;;;;;;2.93;2.40;;;12.70;90.10;;;-142.21;100.00;112049.66;5072945;28;20847;-73
2022/11/18 09:59:19;;;;;;;3.70;2.60;;;12.70;90.10;;;-142.21;100.00;112049.66;5072174;28;20501;-73
2022/11/18 10:01:48;;;;;;;2.80;2.50;;;12.60;90.00;;;-142.21;100.00;112049.66;5072476;28;20523;-72
2022/11/18 10:04:18;;;;;;;3.93;3.00;;;12.60;90.30;;;-142.21;100.00;112049.66;5071623;28;20534;-72
2022/11/18 10:06:48;;;;;;;3.03;2.50;;;12.60;90.30;;;-142.21;100.00;112049.66;5072358;28;20539;-73
2022/11/18 10:09:26;;;;;;;3.37;3.07;;;12.70;90.50;;;-142.21;100.00;112049.66;5071767;28;20481;-74
2022/11/18 10:12:22;;;;;;;4.60;2.93;;;12.70;90.40;;;-142.21;100.00;112049.66;5072604;28;20428;-74
2022/11/18 10:15:11;;;;;;;3.63;2.80;;;12.70;90.10;;;-142.21;100.00;112049.66;5072781;28;20467;-74
2022/11/18 10:17:54;;;;;;;3.10;2.57;;;12.60;90.30;;;-142.21;100.00;112049.66;5072109;28;20529;-74